Time;durP1;ratioP1;P1;durP2;ratioP2;P2;SDS_P1;SDS_P2;PMS_P1;PMS_P2;Temp;Humidity;BMP_temperature;BMP_pressure;BME280_temperature;BME280_humidity;BME280_pressure;Samples;Min_cycle;Max_cycle;Signal;HPM_P1;HPM_P2
2023/09/15 00:00:47;;;;;;;1.73;1.08;;;24.20;85.80;;;;;;5072999;28;20027;-79
2023/09/15 00:03:12;;;;;;;2.03;1.00;;;24.20;85.70;;;;;;5072527;28;20108;-79
2023/09/15 00:05:38;;;;;;;2.35;1.20;;;24.20;85.80;;;;;;5073002;28;20439;-79
2023/09/15 00:08:05;;;;;;;1.20;1.00;;;24.20;85.80;;;;;;5072935;28;20032;-79
2023/09/15 00:10:38;;;;;;;1.52;1.20;;;24.20;85.70;;;;;;5072351;28;20452;-79
2023/09/15 00:13:03;;;;;;;1.65;1.20;;;24.20;85.70;;;;;;5071418;28;20052;-78
2023/09/15 00:15:29;;;;;;;2.45;1.30;;;24.20;85.90;;;;;;5072643;28;20032;-79
2023/09/15 00:17:55;;;;;;;2.13;1.20;;;24.10;85.90;;;;;;5072654;28;20375;-80
2023/09/15 00:20:21;;;;;;;2.97;1.10;;;24.20;85.80;;;;;;5072771;28;20032;-79
2023/09/15 00:22:52;;;;;;;2.47;1.30;;;24.20;85.50;;;;;;5072472;28;20021;-79
2023/09/15 00:25:28;;;;;;;2.00;1.10;;;24.20;85.40;;;;;;5052710;28;20041;-79
2023/09/15 00:27:56;;;;;;;1.88;1.20;;;24.20;85.40;;;;;;5061770;28;20031;-80
2023/09/15 00:30:24;;;;;;;1.60;1.27;;;24.20;85.40;;;;;;5072710;28;20093;-80
2023/09/15 00:32:50;;;;;;;2.10;1.20;;;24.20;85.40;;;;;;5072093;28;20099;-80
2023/09/15 00:35:18;;;;;;;1.50;1.10;;;24.20;85.30;;;;;;5074319;28;20434;-80
2023/09/15 00:37:51;;;;;;;2.25;1.30;;;24.20;85.40;;;;;;5075294;28;20143;-81
2023/09/15 00:40:19;;;;;;;2.80;1.20;;;24.20;85.40;;;;;;5075764;28;20510;-80
2023/09/15 00:42:47;;;;;;;1.63;0.90;;;24.20;85.40;;;;;;5067942;28;20025;-79
2023/09/15 00:45:19;;;;;;;3.88;1.15;;;24.20;85.60;;;;;;5074247;28;20039;-80
2023/09/15 00:47:49;;;;;;;3.47;1.27;;;24.10;85.60;;;;;;5082323;28;20027;-80
2023/09/15 00:50:20;;;;;;;1.98;1.00;;;24.10;85.70;;;;;;5095891;28;20032;-80
2023/09/15 00:52:50;;;;;;;1.30;1.20;;;24.10;85.80;;;;;;5083563;28;20033;-79
2023/09/15 00:55:21;;;;;;;1.88;1.30;;;24.10;85.80;;;;;;5075615;28;20032;-79
2023/09/15 00:57:52;;;;;;;1.33;1.10;;;24.10;85.80;;;;;;5083104;28;20335;-79
2023/09/15 01:00:19;;;;;;;2.38;1.17;;;24.00;85.80;;;;;;5096153;28;20032;-79
2023/09/15 01:02:46;;;;;;;1.92;0.82;;;24.00;85.90;;;;;;5085827;28;20025;-80
2023/09/15 01:05:19;;;;;;;1.70;1.10;;;24.00;85.90;;;;;;5075851;28;20032;-80
2023/09/15 01:07:46;;;;;;;2.97;1.40;;;24.00;85.90;;;;;;5075956;28;20038;-80
2023/09/15 01:10:14;;;;;;;1.48;1.25;;;24.00;86.30;;;;;;5069700;28;20029;-80
2023/09/15 01:12:40;;;;;;;1.40;1.13;;;23.90;86.20;;;;;;5072057;28;20051;-81
2023/09/15 01:15:07;;;;;;;1.70;1.27;;;23.90;86.20;;;;;;5055439;28;20029;-81
2023/09/15 01:17:49;;;;;;;1.27;1.02;;;24.00;86.30;;;;;;5075005;28;20082;-81
2023/09/15 01:20:30;;;;;;;1.73;1.15;;;23.90;86.30;;;;;;5092506;28;20028;-81
2023/09/15 01:23:42;;;;;;;2.00;1.20;;;23.90;86.40;;;;;;5067824;28;20052;-81
2023/09/15 01:26:17;;;;;;;2.85;1.33;;;23.90;86.40;;;;;;5075707;28;20036;-81
2023/09/15 01:29:00;;;;;;;3.08;1.45;;;23.90;86.40;;;;;;5054491;28;20045;-81
2023/09/15 01:31:26;;;;;;;2.03;1.52;;;23.90;86.40;;;;;;5055251;28;20062;-80
2023/09/15 01:33:52;;;;;;;1.85;1.60;;;23.90;86.50;;;;;;5074561;28;20041;-80
2023/09/15 01:36:18;;;;;;;1.80;1.20;;;23.90;86.60;;;;;;5075230;28;20039;-80
2023/09/15 01:38:43;;;;;;;1.98;1.52;;;23.80;86.60;;;;;;5075054;28;20453;-76
2023/09/15 01:41:09;;;;;;;2.53;1.40;;;23.80;86.90;;;;;;5074020;28;20025;-75
2023/09/15 01:43:35;;;;;;;1.83;1.58;;;23.70;87.00;;;;;;5077220;28;20028;-75
2023/09/15 01:46:00;;;;;;;3.90;1.55;;;23.70;87.30;;;;;;5074552;28;20479;-76
2023/09/15 01:48:27;;;;;;;2.00;1.30;;;23.60;87.30;;;;;;5074476;28;20094;-75
2023/09/15 01:50:55;;;;;;;1.50;1.40;;;23.60;87.40;;;;;;5074946;28;20033;-75
2023/09/15 01:53:20;;;;;;;1.48;1.17;;;23.60;87.40;;;;;;5073688;28;20571;-76
2023/09/15 01:55:48;;;;;;;2.83;1.65;;;23.60;87.40;;;;;;5074629;28;20107;-76
2023/09/15 01:58:14;;;;;;;2.30;1.38;;;23.60;87.50;;;;;;5073979;28;20020;-75
2023/09/15 02:00:40;;;;;;;2.33;1.50;;;23.60;87.50;;;;;;5074515;28;20029;-76
2023/09/15 02:03:06;;;;;;;2.58;1.40;;;23.60;87.60;;;;;;5073971;28;20534;-76
2023/09/15 02:05:32;;;;;;;1.63;1.25;;;23.60;87.60;;;;;;5074412;28;20461;-76
2023/09/15 02:07:58;;;;;;;1.98;1.30;;;23.60;87.60;;;;;;5055315;28;20033;-76
2023/09/15 02:10:23;;;;;;;2.17;1.50;;;23.60;87.60;;;;;;5069449;28;20037;-77
2023/09/15 02:12:50;;;;;;;3.22;1.30;;;23.60;87.50;;;;;;5064761;28;20401;-77
2023/09/15 02:15:17;;;;;;;1.98;1.40;;;23.60;87.40;;;;;;5054287;28;20104;-76
2023/09/15 02:17:43;;;;;;;2.30;1.35;;;23.70;87.40;;;;;;5069913;28;20017;-76
2023/09/15 02:20:11;;;;;;;2.03;1.30;;;23.70;87.40;;;;;;5074231;28;20078;-76
2023/09/15 02:22:42;;;;;;;1.30;1.20;;;23.70;87.20;;;;;;5073464;28;20099;-77
2023/09/15 02:25:11;;;;;;;3.30;1.33;;;23.70;87.10;;;;;;5074093;28;20036;-80
2023/09/15 02:27:38;;;;;;;2.00;1.70;;;23.70;87.20;;;;;;5089199;28;20032;-80
2023/09/15 02:30:04;;;;;;;4.65;1.60;;;23.70;87.20;;;;;;5086538;28;20040;-81
2023/09/15 02:32:30;;;;;;;3.55;1.50;;;23.60;87.20;;;;;;5073415;28;20031;-79
2023/09/15 02:34:56;;;;;;;1.92;1.58;;;23.70;87.20;;;;;;5072578;28;20368;-79
2023/09/15 02:37:22;;;;;;;1.75;1.38;;;23.60;87.20;;;;;;5074061;28;20133;-80
2023/09/15 02:39:47;;;;;;;2.38;1.30;;;23.60;87.30;;;;;;5073754;28;20023;-79
2023/09/15 02:42:13;;;;;;;1.83;1.10;;;23.60;87.30;;;;;;5083624;28;20032;-79
2023/09/15 02:44:39;;;;;;;1.67;1.58;;;23.60;87.30;;;;;;5073587;28;20029;-79
2023/09/15 02:47:04;;;;;;;1.85;1.42;;;23.60;87.20;;;;;;5075241;28;20021;-79
2023/09/15 02:49:30;;;;;;;2.47;1.40;;;23.60;87.20;;;;;;5053550;28;20040;-78
2023/09/15 02:51:57;;;;;;;2.30;1.40;;;23.60;87.20;;;;;;5063130;28;20111;-81
2023/09/15 02:54:23;;;;;;;1.83;1.60;;;23.60;87.30;;;;;;5072357;28;20124;-81
2023/09/15 02:56:48;;;;;;;2.35;1.50;;;23.60;87.40;;;;;;5072001;28;20513;-81
2023/09/15 02:59:14;;;;;;;5.90;1.85;;;23.60;87.40;;;;;;5072416;28;20031;-81
2023/09/15 03:01:40;;;;;;;3.08;1.05;;;23.60;87.50;;;;;;5073197;28;20028;-80
2023/09/15 03:04:06;;;;;;;2.55;1.88;;;23.60;87.40;;;;;;5073396;28;20074;-80
2023/09/15 03:06:31;;;;;;;2.08;1.10;;;23.60;87.30;;;;;;5067050;28;20041;-80
2023/09/15 03:08:57;;;;;;;2.55;1.65;;;23.50;87.30;;;;;;5063832;28;20109;-80
2023/09/15 03:11:23;;;;;;;1.40;1.23;;;23.50;87.40;;;;;;5071528;28;20028;-80
2023/09/15 03:13:49;;;;;;;2.08;1.42;;;23.60;87.50;;;;;;5073404;28;20094;-80
2023/09/15 03:16:16;;;;;;;3.40;1.30;;;23.60;87.50;;;;;;5076988;28;20045;-81
2023/09/15 03:18:46;;;;;;;1.50;1.30;;;23.60;87.50;;;;;;5065778;28;20036;-80
2023/09/15 03:21:12;;;;;;;2.58;1.40;;;23.50;87.60;;;;;;5061209;28;20032;-80
2023/09/15 03:23:38;;;;;;;2.55;1.38;;;23.50;87.70;;;;;;5073429;28;20036;-78
2023/09/15 03:26:05;;;;;;;4.18;1.45;;;23.50;87.70;;;;;;5072877;28;20024;-78
2023/09/15 03:28:35;;;;;;;2.33;1.60;;;23.60;87.70;;;;;;5073334;28;20028;-79
2023/09/15 03:31:05;;;;;;;1.90;1.30;;;23.50;87.70;;;;;;5079886;28;20032;-79
2023/09/15 03:33:31;;;;;;;2.58;1.60;;;23.50;87.80;;;;;;5093460;28;20051;-79
2023/09/15 03:35:58;;;;;;;2.00;1.52;;;23.60;87.80;;;;;;5085558;28;20100;-79
2023/09/15 03:38:24;;;;;;;3.22;1.30;;;23.50;87.70;;;;;;5072625;28;20036;-79
2023/09/15 03:40:50;;;;;;;3.88;1.55;;;23.50;87.80;;;;;;5073039;28;20112;-81
2023/09/15 03:43:15;;;;;;;6.25;1.60;;;23.40;88.00;;;;;;5070621;28;20033;-81
2023/09/15 03:45:44;;;;;;;2.63;1.73;;;23.40;88.10;;;;;;5072834;28;20028;-81
2023/09/15 03:48:09;;;;;;;2.53;1.40;;;23.40;88.30;;;;;;5068041;28;20044;-81
2023/09/15 03:50:35;;;;;;;3.00;1.70;;;23.40;88.20;;;;;;5055776;28;20480;-81
2023/09/15 03:53:02;;;;;;;1.92;1.63;;;23.40;88.20;;;;;;5073120;28;20057;-80
2023/09/15 03:55:29;;;;;;;1.90;1.20;;;23.40;88.10;;;;;;5072834;28;20342;-82
2023/09/15 03:57:54;;;;;;;1.35;1.25;;;23.50;88.10;;;;;;5073056;28;20074;-82
2023/09/15 04:00:21;;;;;;;3.05;1.95;;;23.50;88.10;;;;;;5073006;28;20032;-80
2023/09/15 04:02:48;;;;;;;3.00;1.42;;;23.50;88.00;;;;;;5073103;28;20031;-79
2023/09/15 04:05:15;;;;;;;1.35;1.25;;;23.50;88.00;;;;;;5072994;28;20032;-79
2023/09/15 04:07:41;;;;;;;2.33;1.77;;;23.50;88.10;;;;;;5073533;28;20555;-80
2023/09/15 04:10:08;;;;;;;4.70;1.55;;;23.50;88.20;;;;;;5072457;28;20028;-75
2023/09/15 04:12:36;;;;;;;1.30;1.20;;;23.50;88.20;;;;;;5073540;28;20112;-75
2023/09/15 04:15:04;;;;;;;1.65;1.40;;;23.50;88.10;;;;;;5067166;28;20507;-75
2023/09/15 04:17:31;;;;;;;2.05;1.70;;;23.50;88.10;;;;;;5074378;28;20021;-74
2023/09/15 04:19:58;;;;;;;2.60;2.03;;;23.40;88.10;;;;;;5065824;28;20029;-75
2023/09/15 04:22:25;;;;;;;2.00;1.30;;;23.40;88.00;;;;;;5072454;28;20032;-75
2023/09/15 04:24:51;;;;;;;1.98;1.02;;;23.50;88.10;;;;;;5074005;28;20032;-75
2023/09/15 04:27:16;;;;;;;7.93;1.80;;;23.50;88.60;;;;;;5073752;28;20028;-74
2023/09/15 04:29:55;;;;;;;3.08;1.95;;;23.50;88.00;;;;;;5075598;28;20484;-75
2023/09/15 04:32:21;;;;;;;2.55;2.05;;;23.50;88.10;;;;;;5069245;28;20095;-74
2023/09/15 04:34:49;;;;;;;4.20;1.83;;;23.50;88.00;;;;;;5064491;28;21447;-73
2023/09/15 04:37:15;;;;;;;2.47;1.55;;;23.50;88.00;;;;;;5074976;28;20024;-73
2023/09/15 04:39:41;;;;;;;1.80;1.40;;;23.40;88.10;;;;;;5064793;28;20024;-74
2023/09/15 04:42:07;;;;;;;2.22;1.77;;;23.40;88.20;;;;;;5065119;28;20056;-74
2023/09/15 04:44:32;;;;;;;3.30;1.60;;;23.40;88.30;;;;;;5075709;28;20064;-74
2023/09/15 04:47:00;;;;;;;1.75;1.50;;;23.40;88.20;;;;;;5075124;28;20035;-74
2023/09/15 04:49:26;;;;;;;2.25;1.58;;;23.40;88.20;;;;;;5075266;28;20036;-73
2023/09/15 04:51:51;;;;;;;4.35;1.60;;;23.40;88.10;;;;;;5074913;28;20099;-74
2023/09/15 04:54:19;;;;;;;2.10;1.67;;;23.40;88.20;;;;;;5074065;28;20047;-74
2023/09/15 04:56:45;;;;;;;5.13;1.90;;;23.40;88.20;;;;;;5074756;28;20570;-75
2023/09/15 04:59:15;;;;;;;2.10;1.50;;;23.40;88.30;;;;;;5075365;28;20036;-76
2023/09/15 05:01:45;;;;;;;4.38;1.77;;;23.40;88.40;;;;;;5072935;28;20025;-75
2023/09/15 05:04:11;;;;;;;4.67;1.73;;;23.40;88.50;;;;;;5072708;28;20406;-76
2023/09/15 05:06:37;;;;;;;5.28;1.80;;;23.40;88.50;;;;;;5072605;28;20349;-76
2023/09/15 05:09:09;;;;;;;2.05;1.77;;;23.40;88.50;;;;;;5076275;28;20024;-75
2023/09/15 05:11:35;;;;;;;2.03;1.30;;;23.40;88.50;;;;;;5076043;28;20025;-84
2023/09/15 05:14:01;;;;;;;2.33;1.98;;;23.40;88.60;;;;;;5071883;28;20051;-76
2023/09/15 05:16:27;;;;;;;2.13;1.88;;;23.40;88.60;;;;;;5084794;28;20045;-75
2023/09/15 05:18:52;;;;;;;3.70;1.70;;;23.40;88.60;;;;;;5078500;28;20029;-75
2023/09/15 05:21:18;;;;;;;2.85;1.70;;;23.40;88.60;;;;;;5077946;28;20031;-75
2023/09/15 05:23:44;;;;;;;3.38;1.63;;;23.40;88.60;;;;;;5085081;28;20103;-75
2023/09/15 05:26:09;;;;;;;2.05;1.85;;;23.40;88.60;;;;;;5071828;28;20029;-81
2023/09/15 05:28:35;;;;;;;1.35;1.25;;;23.40;88.70;;;;;;5071056;28;20039;-77
2023/09/15 05:31:00;;;;;;;2.75;1.73;;;23.40;88.80;;;;;;5068851;28;20040;-77
2023/09/15 05:33:27;;;;;;;3.65;1.73;;;23.40;88.80;;;;;;5076228;28;20032;-78
2023/09/15 05:35:56;;;;;;;2.10;1.90;;;23.50;89.30;;;;;;5069258;28;20025;-76
2023/09/15 05:38:23;;;;;;;3.40;1.77;;;23.40;88.60;;;;;;5071738;28;20035;-76
2023/09/15 05:40:49;;;;;;;3.42;1.80;;;23.50;88.60;;;;;;5075147;28;20813;-77
2023/09/15 05:43:19;;;;;;;1.70;1.55;;;23.50;88.60;;;;;;5075247;28;20108;-76
2023/09/15 05:45:45;;;;;;;3.05;1.88;;;23.40;88.50;;;;;;5074711;28;20025;-76
2023/09/15 05:48:16;;;;;;;3.40;1.70;;;23.50;88.50;;;;;;5074984;28;20158;-77
2023/09/15 05:50:42;;;;;;;2.03;1.80;;;23.40;88.50;;;;;;5074908;28;20020;-76
2023/09/15 05:53:07;;;;;;;2.85;1.75;;;23.40;88.70;;;;;;5074614;28;20033;-76
2023/09/15 05:55:33;;;;;;;2.42;1.70;;;23.50;88.70;;;;;;5055289;28;20500;-76
2023/09/15 05:57:59;;;;;;;2.28;1.83;;;23.50;88.60;;;;;;5059466;28;20029;-76
2023/09/15 06:00:25;;;;;;;3.28;2.22;;;23.40;88.50;;;;;;5073335;28;20070;-76
2023/09/15 06:02:51;;;;;;;2.00;1.77;;;23.40;88.60;;;;;;5074153;28;20012;-76
2023/09/15 06:05:19;;;;;;;2.50;1.67;;;23.40;88.60;;;;;;5074586;28;20100;-76
2023/09/15 06:07:46;;;;;;;5.72;1.75;;;23.40;88.70;;;;;;5061523;28;20028;-76
2023/09/15 06:10:11;;;;;;;3.33;1.70;;;23.40;88.70;;;;;;5072675;28;20376;-76
2023/09/15 06:12:37;;;;;;;2.33;1.50;;;23.40;88.70;;;;;;5089053;28;20043;-77
2023/09/15 06:15:03;;;;;;;1.60;1.50;;;23.40;88.90;;;;;;5082031;28;20035;-77
2023/09/15 06:17:28;;;;;;;2.70;1.73;;;23.40;89.10;;;;;;5085139;28;20009;-77
2023/09/15 06:19:54;;;;;;;1.75;1.60;;;23.50;89.10;;;;;;5078747;28;20055;-77
2023/09/15 06:22:22;;;;;;;3.22;2.20;;;23.50;89.10;;;;;;5076224;28;20033;-78
2023/09/15 06:24:48;;;;;;;5.28;2.47;;;23.50;89.30;;;;;;5074078;28;20020;-77
2023/09/15 06:27:13;;;;;;;3.15;2.10;;;23.50;89.50;;;;;;5063582;28;20535;-77
2023/09/15 06:29:39;;;;;;;4.68;2.63;;;23.50;90.10;;;;;;5082402;28;20418;-77
2023/09/15 06:32:05;;;;;;;5.07;2.28;;;23.50;90.40;;;;;;5083335;28;20441;-77
2023/09/15 06:34:30;;;;;;;3.10;2.50;;;23.50;90.40;;;;;;5076881;28;20032;-78
2023/09/15 06:36:56;;;;;;;3.60;2.30;;;23.50;90.40;;;;;;5069376;28;20081;-82
2023/09/15 06:39:23;;;;;;;4.50;2.35;;;23.40;90.30;;;;;;5087753;28;20368;-82
2023/09/15 06:41:50;;;;;;;6.45;2.15;;;23.40;90.30;;;;;;5075957;28;20520;-80
2023/09/15 06:44:16;;;;;;;4.88;2.22;;;23.50;90.50;;;;;;5072602;28;20055;-83
2023/09/15 06:46:42;;;;;;;4.22;2.22;;;23.50;90.20;;;;;;5079058;28;20061;-85
2023/09/15 06:49:08;;;;;;;5.05;1.80;;;23.50;90.50;;;;;;5082345;28;20115;-85
2023/09/15 06:51:33;;;;;;;2.70;1.95;;;23.50;90.50;;;;;;5090165;28;20035;-84
2023/09/15 06:54:00;;;;;;;3.10;1.70;;;23.50;90.50;;;;;;5070686;28;20020;-84
2023/09/15 06:56:27;;;;;;;2.40;1.80;;;23.50;90.70;;;;;;5067724;28;20028;-85
2023/09/15 06:58:53;;;;;;;2.67;2.20;;;23.50;90.50;;;;;;5063776;28;20739;-84
2023/09/15 07:01:19;;;;;;;2.17;1.70;;;23.50;90.40;;;;;;5073186;28;20052;-85
2023/09/15 07:03:45;;;;;;;3.88;2.20;;;23.50;90.60;;;;;;5072061;28;20059;-83
2023/09/15 07:06:10;;;;;;;3.83;2.40;;;23.50;90.30;;;;;;5073245;28;20036;-84
2023/09/15 07:08:36;;;;;;;3.78;2.17;;;23.60;90.40;;;;;;5072829;28;20027;-84
2023/09/15 07:11:02;;;;;;;3.05;2.28;;;23.60;90.30;;;;;;5071950;28;20040;-84
2023/09/15 07:13:28;;;;;;;3.22;2.17;;;23.60;90.40;;;;;;5068087;28;20550;-81
2023/09/15 07:15:53;;;;;;;4.18;2.53;;;23.60;90.30;;;;;;5074420;28;20115;-82
2023/09/15 07:18:19;;;;;;;4.82;3.25;;;23.60;90.40;;;;;;5076840;28;20028;-82
2023/09/15 07:20:45;;;;;;;7.57;2.70;;;23.60;90.00;;;;;;5082796;28;20060;-81
2023/09/15 07:23:10;;;;;;;8.25;2.20;;;23.60;90.00;;;;;;5074090;28;20029;-81
2023/09/15 07:25:39;;;;;;;3.88;2.55;;;23.60;89.80;;;;;;5073345;28;20038;-82
2023/09/15 07:28:05;;;;;;;2.83;2.28;;;23.60;90.00;;;;;;5062313;28;20499;-81
2023/09/15 07:30:31;;;;;;;4.15;2.42;;;23.60;90.00;;;;;;5076721;28;20035;-81
2023/09/15 07:32:56;;;;;;;4.38;2.83;;;23.60;90.00;;;;;;5083547;28;20035;-80
2023/09/15 07:35:22;;;;;;;4.50;2.67;;;23.60;89.30;;;;;;5064688;28;20064;-84
2023/09/15 07:37:48;;;;;;;3.45;2.17;;;23.50;89.30;;;;;;5081691;28;20403;-82
2023/09/15 07:40:14;;;;;;;2.78;1.80;;;23.50;89.60;;;;;;5064860;28;20036;-82
2023/09/15 07:42:40;;;;;;;3.00;2.40;;;23.60;89.70;;;;;;5074076;28;20383;-83
2023/09/15 07:45:06;;;;;;;2.47;2.28;;;23.50;88.70;;;;;;5076558;28;20028;-83
2023/09/15 07:47:33;;;;;;;5.68;2.35;;;23.50;89.30;;;;;;5076075;28;20029;-82
2023/09/15 07:49:59;;;;;;;3.75;2.05;;;23.40;88.90;;;;;;5056831;28;20041;-83
2023/09/15 07:52:26;;;;;;;5.22;2.42;;;23.40;89.20;;;;;;5068004;28;20025;-82
2023/09/15 07:54:52;;;;;;;2.65;2.15;;;23.40;89.30;;;;;;5068556;28;20024;-82
2023/09/15 07:57:18;;;;;;;2.90;1.65;;;23.40;89.50;;;;;;5079219;28;20021;-82
2023/09/15 07:59:44;;;;;;;2.78;1.70;;;23.40;89.50;;;;;;5063168;28;20526;-82
2023/09/15 08:02:09;;;;;;;3.85;2.38;;;23.40;89.30;;;;;;5087489;28;20357;-84
2023/09/15 08:04:35;;;;;;;3.40;1.85;;;23.40;89.30;;;;;;5075829;28;20471;-82
2023/09/15 08:07:02;;;;;;;2.90;2.10;;;23.40;89.60;;;;;;5088295;28;20414;-83
2023/09/15 08:09:29;;;;;;;1.60;1.50;;;23.50;89.60;;;;;;5084475;28;20028;-82
2023/09/15 08:11:59;;;;;;;3.10;2.05;;;23.50;89.70;;;;;;5073211;28;20032;-81
2023/09/15 08:14:28;;;;;;;4.30;2.03;;;23.50;89.80;;;;;;5074063;28;20131;-82
2023/09/15 08:16:54;;;;;;;3.88;2.08;;;23.60;89.90;;;;;;5074999;28;20017;-82
2023/09/15 08:19:20;;;;;;;6.10;2.03;;;23.60;89.70;;;;;;5074024;28;20029;-81
2023/09/15 08:21:47;;;;;;;7.03;1.70;;;23.60;89.60;;;;;;5063464;28;20025;-81
2023/09/15 08:24:12;;;;;;;4.57;2.28;;;23.70;89.70;;;;;;5070663;28;20041;-81
2023/09/15 08:26:38;;;;;;;5.20;2.80;;;23.70;88.90;;;;;;5075492;28;20033;-82
2023/09/15 08:29:05;;;;;;;2.88;1.80;;;23.70;89.20;;;;;;5074625;28;20028;-87
2023/09/15 08:31:31;;;;;;;6.93;2.15;;;23.80;89.20;;;;;;5096330;28;20023;-84
2023/09/15 08:33:57;;;;;;;2.40;2.17;;;23.80;89.30;;;;;;5079560;28;20029;-86
2023/09/15 08:36:25;;;;;;;2.20;1.48;;;23.80;89.10;;;;;;5076596;28;20585;-86
2023/09/15 08:38:50;;;;;;;5.18;1.88;;;23.80;89.20;;;;;;5063994;28;20021;-85
2023/09/15 08:41:41;;;;;;;5.85;2.50;;;23.80;89.30;;;;;;5067745;28;20099;-85
2023/09/15 08:44:09;;;;;;;2.63;1.77;;;23.80;89.60;;;;;;5074500;28;20063;-85
2023/09/15 08:46:37;;;;;;;4.05;2.10;;;23.80;89.70;;;;;;5095840;28;20020;-85
2023/09/15 08:49:05;;;;;;;2.03;1.85;;;23.90;89.90;;;;;;5076390;28;20032;-85
2023/09/15 08:51:31;;;;;;;2.47;2.03;;;23.90;89.80;;;;;;5070077;28;20389;-86
2023/09/15 08:53:58;;;;;;;5.50;2.50;;;23.90;89.90;;;;;;5090895;28;20473;-86
2023/09/15 08:56:27;;;;;;;2.53;1.98;;;23.90;89.90;;;;;;5081053;28;20118;-84
2023/09/15 08:58:53;;;;;;;2.05;1.80;;;23.90;89.70;;;;;;5071115;28;20482;-84
2023/09/15 09:01:19;;;;;;;2.63;2.33;;;24.00;89.80;;;;;;5055426;28;20036;-85
2023/09/15 09:03:45;;;;;;;3.20;2.70;;;24.00;89.50;;;;;;5065736;28;20027;-85
2023/09/15 09:06:15;;;;;;;2.45;1.88;;;24.00;89.50;;;;;;5071254;28;20023;-85
2023/09/15 09:08:42;;;;;;;;;;;24.10;89.80;;;;;;5076639;28;20388;-85
2023/09/15 09:11:09;;;;;;;3.25;1.70;;;24.10;89.50;;;;;;5077391;28;19908;-84
2023/09/15 09:13:34;;;;;;;3.15;2.03;;;24.10;88.90;;;;;;5074993;28;20044;-85
2023/09/15 09:16:05;;;;;;;6.22;2.80;;;24.10;88.80;;;;;;5085934;28;20081;-85
2023/09/15 09:18:31;;;;;;;2.58;1.90;;;24.10;88.30;;;;;;5080061;28;20016;-84
2023/09/15 09:20:57;;;;;;;5.05;1.90;;;24.10;88.40;;;;;;5066404;28;20456;-84
2023/09/15 09:23:23;;;;;;;1.77;1.67;;;24.10;88.40;;;;;;5073491;28;20033;-78
2023/09/15 09:25:49;;;;;;;3.05;1.70;;;24.20;88.30;;;;;;5073898;28;20028;-78
2023/09/15 09:28:15;;;;;;;4.70;1.98;;;24.20;88.20;;;;;;5072432;28;20028;-84
2023/09/15 09:30:41;;;;;;;3.58;2.08;;;24.30;88.50;;;;;;5075636;28;20048;-84
2023/09/15 09:33:11;;;;;;;3.25;1.88;;;24.40;88.60;;;;;;5074382;28;20028;-84
2023/09/15 09:35:37;;;;;;;4.07;1.80;;;24.40;88.50;;;;;;5075411;28;20410;-78
2023/09/15 09:38:04;;;;;;;3.45;2.08;;;24.50;88.10;;;;;;5074398;28;20108;-78
2023/09/15 09:40:32;;;;;;;4.15;2.22;;;24.60;87.60;;;;;;5073925;28;20029;-78
2023/09/15 09:42:58;;;;;;;2.20;2.00;;;24.60;87.60;;;;;;5075125;28;20111;-78
2023/09/15 09:45:33;;;;;;;3.95;2.00;;;24.70;87.40;;;;;;5074394;28;20094;-79
2023/09/15 09:48:02;;;;;;;3.95;2.10;;;24.70;87.40;;;;;;5074545;28;20028;-78
2023/09/15 09:50:28;;;;;;;3.67;3.03;;;24.80;87.60;;;;;;5074506;28;20028;-78
2023/09/15 09:52:54;;;;;;;6.57;3.13;;;24.70;86.60;;;;;;5074778;28;20029;-78
2023/09/15 09:55:21;;;;;;;2.67;1.92;;;24.60;87.20;;;;;;5074621;28;20448;-78
2023/09/15 09:57:47;;;;;;;2.08;1.83;;;24.60;87.40;;;;;;5074626;28;20025;-79
2023/09/15 10:00:21;;;;;;;2.58;2.33;;;24.70;87.70;;;;;;5074501;28;20021;-79
2023/09/15 10:02:47;;;;;;;3.35;2.10;;;24.80;87.50;;;;;;5074470;28;20416;-78
2023/09/15 10:05:13;;;;;;;3.65;2.10;;;24.80;87.30;;;;;;5074286;28;20029;-78
2023/09/15 10:07:40;;;;;;;2.22;2.00;;;24.90;87.40;;;;;;5075054;28;20441;-78
2023/09/15 10:10:07;;;;;;;4.93;3.33;;;25.00;87.40;;;;;;5080674;28;20476;-79
2023/09/15 10:12:36;;;;;;;3.35;2.40;;;25.10;86.80;;;;;;5067677;28;20068;-79
2023/09/15 10:15:04;;;;;;;3.72;2.15;;;25.20;87.10;;;;;;5071167;28;20028;-79
2023/09/15 10:17:31;;;;;;;2.83;2.10;;;25.20;86.90;;;;;;5066044;28;20048;-79
2023/09/15 10:19:58;;;;;;;2.58;2.20;;;25.30;86.60;;;;;;5070879;28;20036;-80
2023/09/15 10:22:24;;;;;;;2.58;2.13;;;25.30;86.30;;;;;;5072817;28;20373;-80
2023/09/15 10:25:00;;;;;;;3.28;2.33;;;25.30;86.40;;;;;;5074017;28;20119;-79
2023/09/15 10:27:29;;;;;;;3.22;2.42;;;25.40;86.30;;;;;;5074000;28;20032;-79
2023/09/15 10:30:02;;;;;;;2.57;2.37;;;25.50;86.10;;;;;;5073971;28;20032;-79
2023/09/15 10:32:37;;;;;;;2.70;2.20;;;25.60;85.80;;;;;;5074036;28;20572;-80
2023/09/15 10:35:04;;;;;;;3.22;2.22;;;25.60;85.60;;;;;;5073950;28;20111;-80
2023/09/15 10:37:29;;;;;;;2.75;2.50;;;25.70;85.60;;;;;;5073141;28;20107;-80
2023/09/15 10:39:59;;;;;;;4.20;2.40;;;25.80;85.20;;;;;;5073070;28;20108;-79
2023/09/15 10:42:26;;;;;;;2.70;2.05;;;25.90;85.30;;;;;;5073089;28;20028;-79
2023/09/15 10:44:52;;;;;;;2.28;2.08;;;26.00;85.20;;;;;;5064576;28;20028;-80
2023/09/15 10:47:18;;;;;;;3.47;2.67;;;26.10;85.10;;;;;;5072627;28;20025;-79
2023/09/15 10:49:52;;;;;;;5.80;1.92;;;26.20;83.30;;;;;;5073609;28;20024;-79
2023/09/15 10:52:18;;;;;;;3.65;2.80;;;26.40;84.00;;;;;;5073626;28;20036;-79
2023/09/15 10:54:44;;;;;;;1.88;1.38;;;26.50;82.40;;;;;;5073645;28;20025;-80
2023/09/15 10:57:10;;;;;;;3.03;2.50;;;26.70;83.70;;;;;;5073518;28;21277;-80
2023/09/15 10:59:36;;;;;;;2.55;1.92;;;26.70;81.50;;;;;;5072822;28;20036;-79
2023/09/15 11:02:03;;;;;;;3.20;2.55;;;26.90;82.10;;;;;;5073244;28;20028;-80
2023/09/15 11:04:29;;;;;;;3.80;1.90;;;27.00;81.40;;;;;;5072274;28;20033;-79
2023/09/15 11:06:55;;;;;;;3.55;2.35;;;27.10;81.00;;;;;;5073173;28;20108;-80
2023/09/15 11:09:25;;;;;;;2.22;1.80;;;27.20;80.90;;;;;;5073299;28;20068;-79
2023/09/15 11:11:52;;;;;;;2.03;1.92;;;27.30;80.90;;;;;;5072673;28;20415;-80
2023/09/15 11:14:19;;;;;;;2.65;2.08;;;27.40;80.50;;;;;;5071880;28;20028;-80
2023/09/15 11:16:50;;;;;;;2.35;2.15;;;27.60;80.60;;;;;;5073054;28;20036;-79
2023/09/15 11:19:17;;;;;;;1.70;1.60;;;27.70;79.10;;;;;;5073067;28;20468;-79
2023/09/15 11:21:45;;;;;;;2.50;2.30;;;27.80;79.60;;;;;;5073018;28;20464;-79
2023/09/15 11:24:11;;;;;;;2.38;1.50;;;27.90;77.20;;;;;;5072637;28;20028;-80
2023/09/15 11:26:47;;;;;;;2.08;1.85;;;27.90;78.40;;;;;;5072690;28;20472;-80
2023/09/15 11:29:17;;;;;;;2.65;2.00;;;28.00;78.20;;;;;;5071319;28;20072;-80
2023/09/15 11:31:44;;;;;;;1.92;1.77;;;28.00;77.60;;;;;;5070826;28;20054;-80
2023/09/15 11:34:14;;;;;;;2.63;1.75;;;28.10;77.30;;;;;;5073614;28;20029;-79
2023/09/15 11:36:41;;;;;;;2.20;2.00;;;28.20;77.00;;;;;;5074086;28;20426;-80
2023/09/15 11:39:10;;;;;;;3.08;2.30;;;28.40;77.30;;;;;;5072077;28;20078;-80
2023/09/15 11:41:38;;;;;;;2.58;2.00;;;28.70;76.40;;;;;;5071502;28;20506;-80
2023/09/15 11:44:06;;;;;;;4.53;2.13;;;29.00;77.00;;;;;;5061639;28;20025;-80
2023/09/15 11:46:40;;;;;;;1.83;1.73;;;29.40;76.00;;;;;;5072061;28;20094;-80
2023/09/15 11:49:06;;;;;;;3.10;1.75;;;29.70;75.00;;;;;;5065527;28;20036;-80
2023/09/15 11:51:34;;;;;;;1.67;1.58;;;30.10;74.20;;;;;;5072034;28;20032;-80
2023/09/15 11:54:00;;;;;;;4.13;1.98;;;30.30;74.00;;;;;;5069405;28;20033;-80
2023/09/15 11:56:29;;;;;;;1.67;1.58;;;30.50;72.50;;;;;;5072059;28;20364;-80
2023/09/15 11:58:54;;;;;;;1.75;1.45;;;30.70;72.00;;;;;;5070110;28;20071;-79
2023/09/15 12:01:22;;;;;;;3.70;1.70;;;30.70;69.10;;;;;;5070482;28;20048;-80
2023/09/15 12:03:48;;;;;;;1.85;1.52;;;30.50;70.80;;;;;;5068344;28;20081;-80
2023/09/15 12:06:18;;;;;;;1.65;1.50;;;30.30;70.70;;;;;;5072381;28;20063;-80
2023/09/15 12:08:49;;;;;;;2.67;1.65;;;30.10;70.90;;;;;;5089029;28;20040;-80
2023/09/15 12:11:15;;;;;;;3.58;1.52;;;29.90;71.10;;;;;;5071265;28;20024;-80
2023/09/15 12:13:42;;;;;;;3.28;1.60;;;29.80;71.80;;;;;;5075240;28;20071;-80
2023/09/15 12:16:19;;;;;;;2.50;1.73;;;29.80;72.30;;;;;;5070553;28;20036;-80
2023/09/15 12:18:49;;;;;;;2.28;1.52;;;29.90;71.90;;;;;;5070858;28;20100;-80
2023/09/15 12:21:16;;;;;;;1.65;1.50;;;30.00;71.70;;;;;;5066327;28;20113;-80
2023/09/15 12:23:42;;;;;;;2.22;1.63;;;30.00;72.20;;;;;;5063561;28;20036;-80
2023/09/15 12:26:10;;;;;;;2.92;1.70;;;30.10;72.20;;;;;;5071336;28;20033;-83
2023/09/15 12:28:35;;;;;;;2.17;1.70;;;30.30;72.30;;;;;;5070869;28;20055;-83
2023/09/15 12:31:01;;;;;;;1.98;1.40;;;30.40;71.50;;;;;;5073615;28;20484;-84
2023/09/15 12:33:29;;;;;;;2.00;1.80;;;30.50;70.20;;;;;;5072606;28;20508;-84
2023/09/15 12:35:56;;;;;;;2.47;1.77;;;30.60;70.70;;;;;;5074444;28;20036;-84
2023/09/15 12:38:22;;;;;;;2.25;1.63;;;30.70;70.80;;;;;;5074688;28;20047;-82
2023/09/15 12:40:50;;;;;;;1.80;1.70;;;30.80;69.40;;;;;;5074861;28;20476;-82
2023/09/15 12:43:16;;;;;;;9.43;1.80;;;30.90;69.00;;;;;;5070416;28;20032;-85
2023/09/15 12:45:42;;;;;;;2.83;1.63;;;30.90;68.20;;;;;;5070461;28;20033;-86
2023/09/15 12:48:11;;;;;;;2.08;1.48;;;30.90;68.20;;;;;;5072635;28;20074;-85